Time;durP1;ratioP1;P1;durP2;ratioP2;P2;SDS_P1;SDS_P2;PMS_P1;PMS_P2;Temp;Humidity;BMP_temperature;BMP_pressure;BME280_temperature;BME280_humidity;BME280_pressure;Samples;Min_cycle;Max_cycle;Signal;HPM_P1;HPM_P2
2021/01/18 00:00:48;;;;;;;30.50;9.17;;;5.60;80.70;;;;;;4995275;28;20467;-77
2021/01/18 00:03:14;;;;;;;34.27;9.77;;;5.50;80.80;;;;;;4995960;28;20034;-77
2021/01/18 00:05:40;;;;;;;26.30;10.53;;;5.60;80.40;;;;;;4996327;28;20110;-76
2021/01/18 00:08:05;;;;;;;31.20;9.17;;;5.40;81.00;;;;;;4994509;28;20400;-76
2021/01/18 00:10:31;;;;;;;30.50;10.00;;;5.20;82.10;;;;;;4995649;28;20018;-77
2021/01/18 00:12:56;;;;;;;28.03;10.47;;;5.20;82.20;;;;;;4994788;28;20026;-78
2021/01/18 00:15:23;;;;;;;33.23;10.63;;;5.30;81.70;;;;;;4994331;28;20030;-76
2021/01/18 00:17:49;;;;;;;31.37;11.17;;;5.30;81.20;;;;;;4995002;28;20518;-76
2021/01/18 00:20:16;;;;;;;29.53;11.43;;;5.30;81.40;;;;;;4995866;28;20042;-77
2021/01/18 00:22:42;;;;;;;33.07;12.53;;;5.30;81.20;;;;;;4995823;28;20138;-77
2021/01/18 00:25:12;;;;;;;30.63;11.90;;;5.30;81.00;;;;;;4994848;28;20030;-76
2021/01/18 00:27:38;;;;;;;38.88;11.32;;;5.20;81.70;;;;;;4996005;28;20030;-77
2021/01/18 00:30:08;;;;;;;32.60;12.13;;;5.00;82.30;;;;;;4995531;28;20030;-78
2021/01/18 00:32:33;;;;;;;25.97;12.43;;;5.10;82.90;;;;;;4994555;28;20030;-77
2021/01/18 00:34:59;;;;;;;35.87;13.13;;;5.10;82.70;;;;;;4995870;28;20399;-77
2021/01/18 00:37:24;;;;;;;36.80;14.73;;;5.10;82.30;;;;;;4995550;28;20106;-74
2021/01/18 00:39:50;;;;;;;38.87;14.73;;;5.10;82.20;;;;;;4995845;28;20030;-76
2021/01/18 00:42:19;;;;;;;31.23;14.73;;;5.10;82.40;;;;;;4995372;28;20031;-75
2021/01/18 00:44:45;;;;;;;41.50;16.23;;;5.10;82.50;;;;;;4993109;28;20029;-75
2021/01/18 00:47:10;;;;;;;35.90;15.33;;;5.10;82.60;;;;;;4994186;28;20387;-74
2021/01/18 00:49:36;;;;;;;48.77;16.73;;;5.20;82.30;;;;;;4994282;28;20037;-74
2021/01/18 00:52:02;;;;;;;32.23;16.67;;;5.20;82.20;;;;;;4994317;28;20039;-75
2021/01/18 00:54:27;;;;;;;38.87;15.90;;;5.10;82.50;;;;;;4995356;28;20423;-74
2021/01/18 00:56:53;;;;;;;30.47;15.57;;;5.00;82.80;;;;;;4995280;28;20031;-74
2021/01/18 00:59:18;;;;;;;41.90;17.07;;;4.90;83.50;;;;;;4995223;28;20033;-74
2021/01/18 01:01:44;;;;;;;42.90;16.53;;;4.80;83.80;;;;;;4993802;28;20022;-74
2021/01/18 01:04:09;;;;;;;38.40;15.70;;;4.90;83.90;;;;;;4995040;28;20034;-74
2021/01/18 01:06:35;;;;;;;38.07;15.60;;;4.90;83.80;;;;;;4994378;28;20038;-74
2021/01/18 01:09:01;;;;;;;35.53;15.80;;;5.00;83.80;;;;;;4993964;28;20034;-75
2021/01/18 01:11:27;;;;;;;36.53;15.23;;;5.10;83.60;;;;;;4993581;28;20058;-75
2021/01/18 01:13:52;;;;;;;31.17;14.27;;;5.10;83.40;;;;;;4993952;28;20061;-77
2021/01/18 01:16:18;;;;;;;35.57;14.53;;;5.10;83.00;;;;;;4993716;28;20038;-75
2021/01/18 01:18:44;;;;;;;35.97;14.97;;;5.00;83.30;;;;;;4994560;28;20035;-74
2021/01/18 01:21:09;;;;;;;37.93;15.90;;;4.90;84.20;;;;;;4994609;28;20558;-76
2021/01/18 01:23:35;;;;;;;33.57;15.43;;;4.90;84.20;;;;;;4993016;28;20472;-75
2021/01/18 01:26:01;;;;;;;36.30;15.93;;;4.90;84.20;;;;;;4993910;28;20077;-77
2021/01/18 01:28:26;;;;;;;38.87;15.40;;;5.00;84.20;;;;;;4994788;28;20031;-76
2021/01/18 01:30:52;;;;;;;42.40;15.63;;;4.90;83.90;;;;;;4993343;28;20029;-77
2021/01/18 01:33:17;;;;;;;32.00;13.90;;;4.90;84.20;;;;;;4994280;28;20030;-74
2021/01/18 01:35:43;;;;;;;36.27;14.30;;;4.70;84.80;;;;;;4993581;28;20034;-75
2021/01/18 01:38:08;;;;;;;35.10;15.67;;;4.60;85.30;;;;;;4992589;28;20105;-75
2021/01/18 01:40:34;;;;;;;38.30;15.67;;;4.70;85.20;;;;;;4993103;28;20038;-75
2021/01/18 01:43:01;;;;;;;38.10;15.50;;;4.80;84.90;;;;;;4993442;28;20433;-76
2021/01/18 01:45:27;;;;;;;44.17;16.03;;;4.80;84.50;;;;;;4994006;28;20034;-75
2021/01/18 01:47:53;;;;;;;40.13;16.37;;;4.70;84.70;;;;;;4993382;28;20403;-75
2021/01/18 01:50:19;;;;;;;39.00;16.47;;;4.70;84.80;;;;;;4993072;28;20502;-75
2021/01/18 01:52:50;;;;;;;35.47;14.73;;;4.70;84.70;;;;;;4993447;28;20049;-75
2021/01/18 01:55:32;;;;;;;37.28;16.02;;;4.70;84.50;;;;;;4992237;28;20023;-76
2021/01/18 01:57:59;;;;;;;30.03;15.33;;;4.80;84.40;;;;;;4977842;28;20058;-75
2021/01/18 02:00:24;;;;;;;35.13;15.73;;;4.90;84.00;;;;;;4993030;28;20058;-75
2021/01/18 02:02:50;;;;;;;37.90;16.70;;;4.80;84.20;;;;;;4992986;28;20054;-75
2021/01/18 02:05:16;;;;;;;44.50;16.77;;;4.80;84.30;;;;;;4993387;28;20105;-76
2021/01/18 02:07:42;;;;;;;40.73;17.00;;;4.70;84.60;;;;;;4975231;28;20117;-75
2021/01/18 02:10:08;;;;;;;45.90;17.77;;;4.60;85.10;;;;;;4991697;28;20109;-76
2021/01/18 02:12:34;;;;;;;45.43;18.27;;;4.30;86.40;;;;;;4991618;28;20523;-75
2021/01/18 02:15:10;;;;;;;44.30;16.10;;;4.30;86.80;;;;;;4992695;28;20112;-75
2021/01/18 02:18:16;;;;;;;44.03;17.07;;;4.30;86.50;;;;;;4993949;28;20076;-75
2021/01/18 02:20:52;;;;;;;42.40;16.67;;;4.40;85.70;;;;;;4993247;28;20069;-75
2021/01/18 02:23:38;;;;;;;43.23;17.07;;;4.50;85.60;;;;;;4992906;28;20034;-75
2021/01/18 02:26:12;;;;;;;39.93;16.77;;;4.60;85.40;;;;;;4993536;28;20030;-75
2021/01/18 02:28:53;;;;;;;39.63;15.40;;;4.70;85.00;;;;;;4992583;28;20030;-75
2021/01/18 02:31:37;;;;;;;35.97;14.97;;;4.80;84.60;;;;;;4994133;28;20027;-75
2021/01/18 02:34:31;;;;;;;40.87;15.77;;;4.90;84.10;;;;;;4993071;28;20030;-75
2021/01/18 02:37:16;;;;;;;38.20;15.67;;;4.90;83.60;;;;;;4992788;28;20035;-76
2021/01/18 02:39:50;;;;;;;38.27;15.57;;;4.90;83.40;;;;;;4992688;28;20490;-75
2021/01/18 02:42:19;;;;;;;41.03;14.77;;;4.80;84.00;;;;;;4992519;28;20022;-77
2021/01/18 02:44:45;;;;;;;42.47;14.87;;;4.60;84.50;;;;;;4991225;28;20597;-75
2021/01/18 02:47:10;;;;;;;37.90;14.67;;;4.50;85.30;;;;;;4991818;28;20152;-75
2021/01/18 02:49:36;;;;;;;30.17;14.23;;;4.40;85.80;;;;;;4995682;28;20062;-75
2021/01/18 02:52:10;;;;;;;28.03;13.10;;;4.50;85.80;;;;;;4996435;28;20097;-75
2021/01/18 02:54:36;;;;;;;38.77;13.60;;;4.40;86.10;;;;;;4995790;28;20026;-75
2021/01/18 02:57:05;;;;;;;34.57;13.07;;;4.60;85.50;;;;;;4996232;28;20566;-76
2021/01/18 02:59:31;;;;;;;29.07;11.43;;;4.60;85.40;;;;;;4995058;28;20360;-75
2021/01/18 03:02:17;;;;;;;28.23;12.17;;;4.70;85.10;;;;;;4996270;28;20045;-75
2021/01/18 03:04:52;;;;;;;36.33;13.17;;;4.70;84.90;;;;;;4995643;28;20026;-75
2021/01/18 03:07:23;;;;;;;33.17;13.60;;;4.80;84.10;;;;;;4996258;28;20042;-75
2021/01/18 03:09:53;;;;;;;32.77;13.73;;;4.80;84.00;;;;;;4995180;28;20456;-76
2021/01/18 03:12:22;;;;;;;46.10;13.83;;;4.80;84.00;;;;;;4995828;28;20693;-76
2021/01/18 03:14:49;;;;;;;41.17;13.33;;;4.80;83.70;;;;;;4995836;28;20026;-75
2021/01/18 03:17:19;;;;;;;36.90;13.70;;;4.70;84.10;;;;;;4996030;28;20058;-75
2021/01/18 03:19:44;;;;;;;30.35;12.85;;;4.70;84.00;;;;;;4995387;28;20030;-75
2021/01/18 03:22:11;;;;;;;34.13;13.37;;;4.70;83.90;;;;;;4996318;28;20038;-76
2021/01/18 03:24:37;;;;;;;35.97;12.77;;;4.70;84.40;;;;;;4994774;28;20458;-76
2021/01/18 03:27:03;;;;;;;31.27;12.13;;;4.60;84.40;;;;;;4995927;28;20038;-75
2021/01/18 03:29:29;;;;;;;34.60;14.53;;;4.60;84.50;;;;;;4996100;28;20069;-75
2021/01/18 03:31:55;;;;;;;31.10;13.40;;;4.60;84.20;;;;;;4996173;28;20486;-75
2021/01/18 03:34:20;;;;;;;35.73;14.60;;;4.60;84.30;;;;;;4995889;28;20109;-75
2021/01/18 03:36:46;;;;;;;28.40;14.13;;;4.60;84.10;;;;;;4996185;28;20034;-76
2021/01/18 03:39:11;;;;;;;34.77;13.10;;;4.60;84.30;;;;;;4996094;28;20026;-76
2021/01/18 03:41:37;;;;;;;34.53;13.33;;;4.50;84.50;;;;;;4995731;28;20570;-75
2021/01/18 03:44:03;;;;;;;34.57;13.43;;;4.50;84.70;;;;;;4994933;28;20081;-75
2021/01/18 03:46:28;;;;;;;33.70;13.47;;;4.50;84.50;;;;;;4995764;28;20019;-75
2021/01/18 03:48:54;;;;;;;40.17;14.90;;;4.50;84.50;;;;;;4995523;28;20058;-75
2021/01/18 03:51:19;;;;;;;32.17;13.80;;;4.50;84.10;;;;;;4995642;28;20030;-76
2021/01/18 03:53:45;;;;;;;40.60;13.67;;;4.60;84.10;;;;;;4994344;28;20551;-75
2021/01/18 03:56:11;;;;;;;33.07;12.93;;;4.50;83.90;;;;;;4995403;28;20514;-75
2021/01/18 03:58:36;;;;;;;34.30;13.53;;;4.40;84.80;;;;;;4994458;28;20243;-75
2021/01/18 04:01:02;;;;;;;33.30;13.30;;;4.40;84.70;;;;;;4995233;28;20387;-75
2021/01/18 04:03:28;;;;;;;32.13;13.80;;;4.50;84.30;;;;;;4996279;28;20034;-75
2021/01/18 04:05:53;;;;;;;32.90;13.67;;;4.50;83.90;;;;;;4994999;28;20038;-75
2021/01/18 04:08:19;;;;;;;36.10;13.30;;;4.60;83.60;;;;;;4995569;28;20030;-75
2021/01/18 04:10:45;;;;;;;35.37;13.63;;;4.60;83.50;;;;;;4994821;28;20139;-75
2021/01/18 04:13:10;;;;;;;27.83;13.10;;;4.50;83.70;;;;;;4994913;28;20026;-74
2021/01/18 04:15:36;;;;;;;33.83;12.87;;;4.50;83.70;;;;;;4994888;28;20502;-76
2021/01/18 04:18:01;;;;;;;35.20;13.27;;;4.60;83.50;;;;;;4994758;28;20036;-75
2021/01/18 04:20:27;;;;;;;22.93;12.20;;;4.60;83.50;;;;;;4994410;28;20042;-76
2021/01/18 04:22:55;;;;;;;32.40;12.00;;;4.50;83.70;;;;;;4995732;28;20051;-74
2021/01/18 04:25:22;;;;;;;30.73;12.37;;;4.40;84.00;;;;;;4996108;28;20023;-75
2021/01/18 04:27:49;;;;;;;37.53;12.77;;;4.40;84.20;;;;;;4996095;28;20034;-75
2021/01/18 04:30:16;;;;;;;30.90;12.07;;;4.40;84.10;;;;;;4994845;28;20085;-74
2021/01/18 04:32:42;;;;;;;31.70;11.83;;;4.20;84.80;;;;;;4995913;28;20029;-75
2021/01/18 04:35:08;;;;;;;32.00;11.10;;;4.20;85.30;;;;;;4995959;28;20030;-75
2021/01/18 04:37:34;;;;;;;30.03;10.97;;;4.20;85.30;;;;;;4994954;28;20027;-74
2021/01/18 04:40:00;;;;;;;34.33;11.97;;;4.20;85.20;;;;;;4995249;28;20022;-75
2021/01/18 04:42:26;;;;;;;32.07;12.67;;;4.20;85.40;;;;;;4994615;28;20030;-75
2021/01/18 04:44:56;;;;;;;29.20;11.53;;;4.10;85.20;;;;;;4993032;28;20468;-75
2021/01/18 04:47:24;;;;;;;38.73;12.70;;;4.20;85.30;;;;;;4992936;28;20030;-75
2021/01/18 04:49:52;;;;;;;32.17;11.90;;;4.10;85.50;;;;;;4992818;28;20093;-74
2021/01/18 04:52:18;;;;;;;28.87;12.17;;;4.00;86.00;;;;;;4993931;28;20018;-76
2021/01/18 04:54:45;;;;;;;37.53;12.60;;;4.00;85.90;;;;;;4992901;28;20089;-75
2021/01/18 04:57:14;;;;;;;36.50;13.53;;;4.10;85.50;;;;;;4994281;28;20030;-75
2021/01/18 04:59:41;;;;;;;38.17;12.17;;;4.30;84.90;;;;;;4995259;28;20026;-75
2021/01/18 05:02:08;;;;;;;36.27;13.00;;;4.30;84.30;;;;;;4994320;28;20109;-76
2021/01/18 05:04:42;;;;;;;34.57;12.37;;;4.30;84.20;;;;;;4994428;28;20037;-77
2021/01/18 05:07:36;;;;;;;38.27;12.60;;;4.30;84.40;;;;;;4993759;28;20037;-75
2021/01/18 05:10:09;;;;;;;33.10;11.13;;;4.40;84.30;;;;;;4993922;28;20129;-75
2021/01/18 05:12:42;;;;;;;34.90;12.20;;;4.20;84.90;;;;;;4991391;28;20030;-76
2021/01/18 05:15:11;;;;;;;38.00;12.47;;;4.20;85.10;;;;;;4993491;28;20052;-76
2021/01/18 05:17:43;;;;;;;35.47;11.37;;;4.30;84.60;;;;;;4992489;28;20109;-75
2021/01/18 05:20:15;;;;;;;25.47;10.63;;;4.20;85.40;;;;;;4993663;28;20101;-76
2021/01/18 05:22:42;;;;;;;37.77;11.33;;;4.00;86.10;;;;;;4994926;28;20029;-75
2021/01/18 05:25:08;;;;;;;30.17;10.93;;;4.00;85.80;;;;;;4994663;28;20475;-75
2021/01/18 05:27:34;;;;;;;43.30;11.37;;;3.90;86.40;;;;;;4994364;28;20034;-75
2021/01/18 05:30:00;;;;;;;33.07;10.90;;;3.90;86.50;;;;;;4993219;28;20029;-76
2021/01/18 05:32:25;;;;;;;26.37;9.63;;;4.00;86.40;;;;;;4992339;28;20368;-75
2021/01/18 05:35:11;;;;;;;35.10;10.73;;;3.90;86.70;;;;;;4993521;28;20150;-76
2021/01/18 05:37:36;;;;;;;41.03;10.33;;;3.90;87.10;;;;;;4993370;28;20019;-75
2021/01/18 05:40:18;;;;;;;33.80;10.47;;;4.00;86.40;;;;;;4992994;28;20038;-75
2021/01/18 05:42:44;;;;;;;28.17;9.60;;;4.20;85.70;;;;;;4993000;28;20022;-75
2021/01/18 05:45:10;;;;;;;30.53;9.90;;;4.10;85.90;;;;;;4976219;28;20060;-77
2021/01/18 05:47:41;;;;;;;32.20;10.80;;;4.10;85.70;;;;;;4990801;28;20040;-76
2021/01/18 05:50:08;;;;;;;31.40;10.10;;;4.10;85.60;;;;;;4990548;28;20047;-78
2021/01/18 05:52:33;;;;;;;28.53;10.20;;;4.10;85.60;;;;;;4992104;28;20037;-76
2021/01/18 05:55:15;;;;;;;23.83;10.20;;;4.10;85.80;;;;;;4992420;28;20065;-76
2021/01/18 05:57:47;;;;;;;26.67;10.30;;;4.10;85.70;;;;;;4992263;28;20112;-76
2021/01/18 06:00:13;;;;;;;29.97;10.17;;;4.20;85.90;;;;;;4992785;28;20026;-76
2021/01/18 06:02:39;;;;;;;31.90;10.00;;;4.20;85.90;;;;;;4993679;28;20376;-76
2021/01/18 06:05:08;;;;;;;28.10;9.43;;;4.10;86.10;;;;;;4993028;28;20029;-76
2021/01/18 06:07:34;;;;;;;23.90;9.73;;;4.00;86.30;;;;;;4976824;28;20042;-75
2021/01/18 06:10:00;;;;;;;31.87;9.73;;;4.00;86.50;;;;;;4992888;28;20022;-76
2021/01/18 06:12:26;;;;;;;35.93;9.73;;;4.00;86.60;;;;;;4994001;28;20485;-75
2021/01/18 06:15:05;;;;;;;29.67;9.10;;;4.00;86.50;;;;;;4994029;28;20023;-75
2021/01/18 06:17:31;;;;;;;28.33;9.10;;;3.80;87.20;;;;;;4993741;28;20034;-75
2021/01/18 06:20:01;;;;;;;30.40;8.90;;;3.80;87.70;;;;;;4993705;28;20041;-76
2021/01/18 06:22:29;;;;;;;32.33;10.33;;;3.90;87.20;;;;;;4991981;28;20033;-76
2021/01/18 06:24:56;;;;;;;25.10;9.27;;;4.00;86.70;;;;;;4992409;28;20022;-76
2021/01/18 06:27:33;;;;;;;29.17;10.27;;;3.90;87.00;;;;;;4992481;28;20042;-76
2021/01/18 06:29:59;;;;;;;26.60;10.03;;;3.90;86.70;;;;;;4992369;28;20118;-76
2021/01/18 06:32:32;;;;;;;30.87;10.83;;;4.00;86.50;;;;;;4993474;28;20113;-75
2021/01/18 06:34:59;;;;;;;35.00;11.03;;;4.00;86.30;;;;;;4994035;28;20041;-76
2021/01/18 06:37:27;;;;;;;28.53;10.87;;;4.00;86.50;;;;;;4992750;28;20431;-76
2021/01/18 06:39:57;;;;;;;24.63;10.47;;;3.90;86.50;;;;;;4992438;28;20057;-76
2021/01/18 06:42:23;;;;;;;29.30;10.40;;;4.00;86.60;;;;;;4993633;28;20027;-76
2021/01/18 06:44:50;;;;;;;26.90;11.53;;;4.00;86.20;;;;;;4993592;28;20499;-76
2021/01/18 06:47:23;;;;;;;38.70;11.03;;;4.10;86.10;;;;;;4992664;28;20033;-76
2021/01/18 06:50:05;;;;;;;35.73;11.27;;;4.30;85.30;;;;;;4993533;28;20042;-76
2021/01/18 06:52:32;;;;;;;31.10;10.50;;;4.30;85.20;;;;;;4993549;28;20057;-76
2021/01/18 06:55:01;;;;;;;28.97;10.23;;;4.30;85.10;;;;;;4993415;28;20109;-76
2021/01/18 06:57:42;;;;;;;28.20;10.53;;;4.20;85.30;;;;;;4993527;28;20030;-76
2021/01/18 07:00:08;;;;;;;26.38;9.57;;;4.20;85.50;;;;;;4994150;28;20038;-76
2021/01/18 07:02:50;;;;;;;30.67;10.67;;;4.00;85.90;;;;;;4975824;28;20026;-77
2021/01/18 07:05:15;;;;;;;27.00;10.37;;;4.10;86.10;;;;;;4992257;28;20103;-76
2021/01/18 07:07:41;;;;;;;38.57;9.83;;;4.10;85.80;;;;;;4992252;28;20109;-76
2021/01/18 07:10:09;;;;;;;23.00;9.40;;;4.10;85.80;;;;;;4976050;28;20030;-76
2021/01/18 07:12:34;;;;;;;25.60;9.47;;;4.00;86.40;;;;;;4991944;28;20113;-76
2021/01/18 07:15:07;;;;;;;25.77;9.97;;;4.00;86.70;;;;;;4993277;28;20061;-76
2021/01/18 07:17:42;;;;;;;25.93;9.20;;;4.10;86.30;;;;;;4992343;28;20033;-76
2021/01/18 07:20:28;;;;;;;30.67;10.03;;;4.20;85.80;;;;;;4993709;28;20538;-76
2021/01/18 07:23:09;;;;;;;23.70;10.47;;;4.30;85.40;;;;;;4991475;28;20042;-77
2021/01/18 07:25:36;;;;;;;33.73;10.87;;;4.30;85.20;;;;;;4991977;28;20030;-76
2021/01/18 07:28:02;;;;;;;30.87;9.87;;;4.20;85.30;;;;;;4992750;28;20038;-77
2021/01/18 07:30:35;;;;;;;27.33;9.73;;;4.10;85.90;;;;;;4993361;28;20049;-76
2021/01/18 07:33:07;;;;;;;25.57;9.23;;;4.10;86.10;;;;;;4976134;28;20086;-78
2021/01/18 07:35:33;;;;;;;24.77;8.97;;;4.00;86.70;;;;;;4965551;28;20137;-77
2021/01/18 07:38:18;;;;;;;27.53;9.40;;;4.10;86.50;;;;;;4975626;28;20594;-76
2021/01/18 07:41:05;;;;;;;29.07;9.27;;;4.10;86.60;;;;;;4976574;28;20106;-77
2021/01/18 07:43:44;;;;;;;31.63;8.63;;;4.30;86.10;;;;;;4977139;28;20054;-76
2021/01/18 07:46:25;;;;;;;27.03;9.30;;;4.20;85.80;;;;;;4976201;28;20113;-76
2021/01/18 07:49:13;;;;;;;30.75;9.18;;;4.30;85.60;;;;;;4977026;28;20034;-76
2021/01/18 07:51:39;;;;;;;25.67;8.67;;;4.50;85.30;;;;;;4976693;28;20126;-76
2021/01/18 07:54:04;;;;;;;27.60;8.57;;;4.50;85.00;;;;;;4975947;28;20507;-76
2021/01/18 07:56:30;;;;;;;31.53;9.07;;;4.60;84.90;;;;;;4976875;28;20031;-76
2021/01/18 07:59:04;;;;;;;26.83;9.30;;;4.70;84.40;;;;;;4976861;28;20101;-76
2021/01/18 08:01:39;;;;;;;25.17;9.20;;;4.90;83.90;;;;;;4976911;28;20527;-76
2021/01/18 08:04:20;;;;;;;34.93;9.23;;;4.90;83.60;;;;;;4975697;28;20058;-76
2021/01/18 08:07:01;;;;;;;;;;;4.90;83.80;;;;;;4975855;28;20050;-76
2021/01/18 08:09:27;;;;;;;28.95;8.13;;;4.90;83.70;;;;;;4975821;28;19910;-76
2021/01/18 08:11:53;;;;;;;27.47;8.23;;;4.90;83.90;;;;;;4976676;28;20077;-76
2021/01/18 08:14:18;;;;;;;24.00;8.27;;;4.90;83.90;;;;;;4959422;28;20023;-76
2021/01/18 08:16:44;;;;;;;22.73;7.50;;;5.00;83.70;;;;;;4959958;28;20030;-76
2021/01/18 08:19:20;;;;;;;26.50;7.20;;;5.00;83.50;;;;;;4959429;28;20031;-76
2021/01/18 08:22:01;;;;;;;27.20;8.10;;;5.00;84.00;;;;;;4976488;28;20487;-77
2021/01/18 08:24:26;;;;;;;;;;;5.10;83.40;;;;;;4977004;28;20025;-76
2021/01/18 08:26:59;;;;;;;29.27;7.40;;;5.10;83.30;;;;;;4976176;28;19906;-76
2021/01/18 08:29:44;;;;;;;26.77;8.27;;;5.20;83.00;;;;;;4974773;28;20121;-76
2021/01/18 08:32:33;;;;;;;31.47;7.77;;;5.10;83.70;;;;;;4976095;28;20023;-76
2021/01/18 08:35:05;;;;;;;20.10;7.00;;;5.10;83.60;;;;;;4975649;28;20460;-76
2021/01/18 08:37:31;;;;;;;31.23;8.37;;;5.20;83.40;;;;;;4976672;28;20025;-76
2021/01/18 08:40:07;;;;;;;26.60;7.27;;;5.20;83.20;;;;;;4976228;28;20085;-77
2021/01/18 08:42:34;;;;;;;18.57;6.57;;;5.30;82.70;;;;;;4975299;28;20105;-75
2021/01/18 08:45:06;;;;;;;21.67;7.43;;;5.40;82.20;;;;;;4974863;28;20023;-76
2021/01/18 08:47:35;;;;;;;27.50;7.80;;;5.40;82.00;;;;;;4974489;28;20026;-77
2021/01/18 08:50:35;;;;;;;22.07;6.93;;;5.40;82.60;;;;;;4976148;28;20098;-76
2021/01/18 08:53:02;;;;;;;24.07;6.50;;;5.40;82.30;;;;;;4975978;28;20034;-76
2021/01/18 08:55:31;;;;;;;24.73;7.07;;;5.50;82.40;;;;;;4975910;28;20115;-76
2021/01/18 08:57:59;;;;;;;28.97;7.93;;;5.40;82.30;;;;;;4975645;28;20026;-77
2021/01/18 09:00:41;;;;;;;26.53;7.10;;;5.40;82.40;;;;;;4975937;28;20031;-76
2021/01/18 09:03:08;;;;;;;21.47;6.77;;;5.50;82.00;;;;;;4977415;28;20033;-76
2021/01/18 09:05:34;;;;;;;21.70;7.00;;;5.50;81.80;;;;;;4991761;28;20026;-76
2021/01/18 09:08:00;;;;;;;23.00;6.97;;;5.50;82.00;;;;;;4975462;28;20038;-77
2021/01/18 09:10:26;;;;;;;23.70;6.87;;;5.50;81.90;;;;;;4975618;28;20050;-76
2021/01/18 09:12:52;;;;;;;30.30;7.53;;;5.60;81.80;;;;;;4975457;28;20055;-76
2021/01/18 09:15:18;;;;;;;32.77;7.60;;;5.70;81.40;;;;;;4976001;28;20041;-76
2021/01/18 09:17:45;;;;;;;29.47;7.13;;;5.70;81.60;;;;;;4974523;28;20031;-76
2021/01/18 09:20:11;;;;;;;23.10;7.00;;;5.60;82.00;;;;;;4975566;28;20061;-76
2021/01/18 09:22:40;;;;;;;18.87;5.97;;;5.50;82.80;;;;;;4975750;28;20029;-77
2021/01/18 09:25:07;;;;;;;21.30;6.10;;;5.40;83.30;;;;;;4993275;28;20015;-76
2021/01/18 09:27:33;;;;;;;25.23;6.33;;;5.30;83.70;;;;;;4995147;28;20030;-76
2021/01/18 09:30:09;;;;;;;19.23;6.53;;;5.40;83.50;;;;;;4994748;28;20049;-76
2021/01/18 09:32:36;;;;;;;25.17;6.37;;;5.50;83.10;;;;;;4994383;28;20484;-76
2021/01/18 09:35:14;;;;;;;25.73;6.43;;;5.50;83.20;;;;;;4993663;28;20049;-75
2021/01/18 09:37:43;;;;;;;27.47;6.37;;;5.60;83.20;;;;;;4993349;28;20015;-76
2021/01/18 09:40:09;;;;;;;29.03;7.00;;;5.60;82.70;;;;;;4993258;28;20350;-76
2021/01/18 09:42:35;;;;;;;22.27;6.97;;;5.70;83.00;;;;;;4994768;28;20023;-76
2021/01/18 09:45:05;;;;;;;24.07;7.57;;;5.80;82.30;;;;;;4994616;28;20049;-76
2021/01/18 09:47:31;;;;;;;28.23;7.70;;;6.00;81.70;;;;;;4984347;28;20382;-76
2021/01/18 09:50:10;;;;;;;24.83;7.53;;;6.10;81.20;;;;;;4979225;28;20040;-79
2021/01/18 09:52:40;;;;;;;24.83;6.90;;;6.10;81.20;;;;;;4981268;28;20023;-76
2021/01/18 09:55:28;;;;;;;26.30;7.63;;;5.80;82.20;;;;;;4992839;28;20030;-76
2021/01/18 09:58:18;;;;;;;21.07;6.57;;;5.90;82.50;;;;;;5008753;28;20038;-76
2021/01/18 10:00:45;;;;;;;21.07;6.67;;;5.90;82.50;;;;;;4993788;28;20034;-75
2021/01/18 10:03:11;;;;;;;21.80;7.10;;;5.80;83.00;;;;;;4994324;28;20015;-75
2021/01/18 10:05:42;;;;;;;24.63;7.77;;;5.90;82.70;;;;;;5009180;28;20033;-76
2021/01/18 10:08:21;;;;;;;24.40;7.63;;;6.00;82.10;;;;;;5008866;28;20092;-76
2021/01/18 10:10:50;;;;;;;20.90;6.67;;;6.00;81.90;;;;;;4974109;28;20361;-77
2021/01/18 10:13:19;;;;;;;29.20;9.83;;;6.00;82.10;;;;;;4973345;28;20361;-76
2021/01/18 10:15:45;;;;;;;26.30;7.87;;;5.90;82.40;;;;;;4974518;28;20065;-76
2021/01/18 10:18:30;;;;;;;33.33;8.03;;;5.80;83.10;;;;;;4986976;28;20023;-75
2021/01/18 10:20:56;;;;;;;27.83;6.90;;;5.90;83.20;;;;;;4993709;28;20120;-75
2021/01/18 10:23:21;;;;;;;21.10;6.37;;;6.00;82.40;;;;;;5009165;28;20058;-76
2021/01/18 10:25:47;;;;;;;28.37;7.33;;;6.10;81.80;;;;;;4993913;28;20026;-76
2021/01/18 10:28:19;;;;;;;23.67;6.77;;;6.10;81.60;;;;;;4992609;28;20033;-76
2021/01/18 10:30:45;;;;;;;27.50;8.37;;;6.00;82.40;;;;;;4993150;28;20452;-75
2021/01/18 10:33:19;;;;;;;22.83;6.80;;;5.90;82.70;;;;;;4994506;28;20029;-75
2021/01/18 10:35:46;;;;;;;24.33;6.90;;;6.10;82.20;;;;;;4998220;28;20353;-76
2021/01/18 10:38:22;;;;;;;26.33;6.50;;;6.10;82.20;;;;;;5008827;28;20471;-76
2021/01/18 10:41:07;;;;;;;24.60;6.60;;;6.20;82.50;;;;;;4993848;28;20022;-76
2021/01/18 10:43:33;;;;;;;20.20;5.00;;;6.20;82.00;;;;;;4993968;28;20018;-75
2021/01/18 10:45:59;;;;;;;26.17;7.27;;;6.30;81.30;;;;;;4993239;28;20029;-76
2021/01/18 10:48:31;;;;;;;24.63;6.63;;;6.30;81.10;;;;;;4993630;28;20027;-76
2021/01/18 10:51:02;;;;;;;22.90;6.47;;;6.30;81.60;;;;;;4981482;28;20045;-76
2021/01/18 10:53:31;;;;;;;25.65;6.47;;;6.30;82.00;;;;;;4973106;28;20113;-76
2021/01/18 10:56:14;;;;;;;25.63;6.57;;;6.20;82.20;;;;;;4973068;28;20035;-76
2021/01/18 10:58:40;;;;;;;31.27;7.07;;;6.30;81.40;;;;;;4974224;28;20019;-75
2021/01/18 11:01:12;;;;;;;16.40;6.00;;;6.40;81.20;;;;;;4972949;28;20541;-76
2021/01/18 11:03:40;;;;;;;27.83;7.00;;;6.40;81.20;;;;;;4980324;28;20050;-77
2021/01/18 11:06:16;;;;;;;22.13;6.33;;;6.30;81.50;;;;;;4992219;28;20058;-77
2021/01/18 11:08:42;;;;;;;23.13;7.23;;;6.50;80.70;;;;;;4992578;28;20037;-77
2021/01/18 11:11:25;;;;;;;26.70;6.93;;;6.60;80.00;;;;;;4982531;28;20158;-78
2021/01/18 11:14:06;;;;;;;27.80;7.50;;;6.70;80.50;;;;;;4993484;28;20088;-77
2021/01/18 11:16:32;;;;;;;27.17;6.97;;;6.60;80.30;;;;;;4997445;28;20030;-77
2021/01/18 11:19:00;;;;;;;24.50;7.23;;;6.50;81.20;;;;;;4997173;28;20025;-76
2021/01/18 11:21:26;;;;;;;20.77;7.07;;;6.50;81.10;;;;;;4997047;28;20018;-76
2021/01/18 11:23:52;;;;;;;21.47;6.83;;;6.50;81.50;;;;;;4997163;28;20116;-77
2021/01/18 11:26:18;;;;;;;21.90;6.93;;;6.60;81.60;;;;;;4997083;28;20022;-77
2021/01/18 11:28:44;;;;;;;30.37;6.60;;;6.60;81.20;;;;;;4997093;28;20037;-75
2021/01/18 11:31:09;;;;;;;23.70;6.70;;;6.70;81.20;;;;;;4996353;28;20030;-76
2021/01/18 11:33:35;;;;;;;27.77;6.83;;;6.80;80.80;;;;;;4995259;28;20045;-76
2021/01/18 11:36:00;;;;;;;27.23;7.27;;;6.90;79.80;;;;;;4996781;28;20061;-76
2021/01/18 11:38:26;;;;;;;28.27;6.17;;;7.00;80.00;;;;;;4996676;28;20031;-76
2021/01/18 11:40:52;;;;;;;21.40;5.90;;;7.00;79.70;;;;;;4996760;28;20034;-75
2021/01/18 11:43:17;;;;;;;24.27;6.07;;;7.10;79.40;;;;;;4996767;28;20030;-75
2021/01/18 11:45:43;;;;;;;22.00;6.57;;;7.20;79.50;;;;;;5011735;28;20475;-75
2021/01/18 11:48:09;;;;;;;25.10;5.80;;;7.20;79.40;;;;;;4996778;28;20088;-75
2021/01/18 11:50:34;;;;;;;24.27;6.53;;;7.40;78.90;;;;;;4996500;28;20369;-75
2021/01/18 11:53:00;;;;;;;23.63;6.17;;;7.40;78.80;;;;;;5011350;28;20057;-75
2021/01/18 11:55:26;;;;;;;24.30;6.30;;;7.40;78.60;;;;;;5011745;28;20061;-76
2021/01/18 11:57:51;;;;;;;21.33;6.37;;;7.30;78.70;;;;;;4996411;28;20468;-77
2021/01/18 12:00:28;;;;;;;23.10;5.80;;;7.30;78.80;;;;;;5011180;28;20041;-75
2021/01/18 12:02:58;;;;;;;27.60;6.30;;;7.50;78.50;;;;;;4996424;28;20081;-77
2021/01/18 12:05:27;;;;;;;27.98;6.93;;;7.50;78.40;;;;;;4996177;28;20018;-76
2021/01/18 12:07:56;;;;;;;24.87;6.93;;;7.60;78.20;;;;;;4989845;28;20419;-75
2021/01/18 12:10:23;;;;;;;22.07;6.20;;;7.60;77.60;;;;;;4991810;28;20038;-75
2021/01/18 12:12:49;;;;;;;26.83;8.00;;;7.60;77.50;;;;;;4991941;28;20464;-75
2021/01/18 12:15:15;;;;;;;25.50;6.30;;;7.50;78.30;;;;;;4976770;28;20025;-75
2021/01/18 12:17:41;;;;;;;31.27;7.13;;;7.50;78.30;;;;;;4977003;28;20093;-75
2021/01/18 12:20:08;;;;;;;20.13;6.07;;;7.50;78.40;;;;;;4976441;28;20175;-75
2021/01/18 12:22:34;;;;;;;25.67;6.47;;;7.60;78.10;;;;;;4976148;28;20026;-75
2021/01/18 12:24:59;;;;;;;25.93;6.37;;;7.50;78.50;;;;;;4976711;28;20037;-75
2021/01/18 12:27:25;;;;;;;21.63;6.20;;;7.40;79.30;;;;;;4976554;28;20102;-76
2021/01/18 12:29:50;;;;;;;22.70;6.13;;;7.40;79.50;;;;;;4973868;28;20034;-82
2021/01/18 12:32:16;;;;;;;25.13;6.27;;;7.50;78.90;;;;;;4991955;28;20487;-76
2021/01/18 12:34:42;;;;;;;25.77;6.00;;;7.50;79.60;;;;;;4993898;28;20061;-77
2021/01/18 12:37:07;;;;;;;21.57;5.80;;;7.40;79.40;;;;;;4987721;28;20039;-78
2021/01/18 12:39:33;;;;;;;27.23;6.70;;;7.60;79.20;;;;;;4983154;28;20035;-76
2021/01/18 12:41:58;;;;;;;24.00;6.50;;;7.80;78.30;;;;;;4971658;28;20035;-76
2021/01/18 12:44:24;;;;;;;29.70;6.30;;;7.70;78.60;;;;;;4974492;28;20035;-76
2021/01/18 12:46:51;;;;;;;24.27;6.03;;;7.60;78.90;;;;;;4976528;28;20535;-76
2021/01/18 12:49:17;;;;;;;23.17;5.20;;;7.70;78.60;;;;;;4974406;28;20384;-76
2021/01/18 12:51:42;;;;;;;22.50;6.13;;;7.50;78.80;;;;;;4975457;28;20102;-76
2021/01/18 12:54:08;;;;;;;27.13;6.23;;;7.60;79.10;;;;;;4975649;28;20095;-76